Time;durP1;ratioP1;P1;durP2;ratioP2;P2;SDS_P1;SDS_P2;PMS_P1;PMS_P2;Temp;Humidity;BMP_temperature;BMP_pressure;BME280_temperature;BME280_humidity;BME280_pressure;Samples;Min_cycle;Max_cycle;Signal;HPM_P1;HPM_P2
2023/09/23 00:00:56;;;;;;;6.10;4.07;;;13.70;68.00;;;;;;5091884;28;20451;-74
2023/09/23 00:03:23;;;;;;;9.70;3.97;;;13.70;68.30;;;;;;5091610;28;20378;-73
2023/09/23 00:05:50;;;;;;;6.53;4.10;;;13.60;68.90;;;;;;5092193;28;20793;-74
2023/09/23 00:08:18;;;;;;;4.22;3.08;;;13.70;69.10;;;;;;5090468;28;20382;-75
2023/09/23 00:10:44;;;;;;;5.82;3.40;;;13.60;69.30;;;;;;5091698;28;20382;-74
2023/09/23 00:13:10;;;;;;;5.57;3.03;;;13.50;72.10;;;;;;5091479;28;20381;-73
2023/09/23 00:15:40;;;;;;;4.37;3.40;;;13.60;71.70;;;;;;5091567;28;20920;-74
2023/09/23 00:18:06;;;;;;;4.40;3.30;;;13.50;70.50;;;;;;5091724;28;20374;-74
2023/09/23 00:20:32;;;;;;;3.33;2.80;;;13.50;70.40;;;;;;5091691;28;20515;-74
2023/09/23 00:22:58;;;;;;;4.22;3.20;;;13.50;71.10;;;;;;5091429;28;20385;-74
2023/09/23 00:25:24;;;;;;;5.07;3.60;;;13.40;69.80;;;;;;5091389;28;20472;-74
2023/09/23 00:27:53;;;;;;;5.57;3.40;;;13.30;72.40;;;;;;5091601;28;20957;-74
2023/09/23 00:30:20;;;;;;;5.40;3.80;;;13.30;72.00;;;;;;5091278;28;20461;-74
2023/09/23 00:32:45;;;;;;;3.35;2.90;;;13.10;74.10;;;;;;5091014;28;20438;-74
2023/09/23 00:35:11;;;;;;;4.03;3.10;;;13.10;70.90;;;;;;5091173;28;20823;-74
2023/09/23 00:37:39;;;;;;;4.75;3.05;;;13.00;72.70;;;;;;5091394;28;20893;-74
2023/09/23 00:40:06;;;;;;;6.63;2.70;;;13.10;72.90;;;;;;5091291;28;20916;-74
2023/09/23 00:42:32;;;;;;;3.40;2.72;;;13.20;69.20;;;;;;5091120;28;20385;-74
2023/09/23 00:44:57;;;;;;;3.40;3.10;;;13.20;70.40;;;;;;5089873;28;20755;-74
2023/09/23 00:47:23;;;;;;;4.78;3.38;;;13.20;72.00;;;;;;5091024;28;20389;-73
2023/09/23 00:49:48;;;;;;;3.95;3.25;;;13.20;73.00;;;;;;5090963;28;20479;-74
2023/09/23 00:52:16;;;;;;;3.60;3.20;;;13.10;74.70;;;;;;5091003;28;20374;-73
2023/09/23 00:54:46;;;;;;;4.30;3.63;;;13.00;76.40;;;;;;5090945;28;20410;-73
2023/09/23 00:57:13;;;;;;;5.05;3.97;;;13.10;74.70;;;;;;5090734;28;20386;-74
2023/09/23 00:59:42;;;;;;;6.72;3.70;;;13.10;71.50;;;;;;5091092;28;20378;-74
2023/09/23 01:02:09;;;;;;;5.32;4.00;;;13.00;72.90;;;;;;5090477;28;20378;-73
2023/09/23 01:04:34;;;;;;;6.57;4.63;;;13.00;71.40;;;;;;5091335;28;20392;-73
2023/09/23 01:07:02;;;;;;;9.40;4.50;;;12.90;73.70;;;;;;5091284;28;20378;-73
2023/09/23 01:09:31;;;;;;;4.97;3.70;;;12.80;75.50;;;;;;5090920;28;20378;-73
2023/09/23 01:11:56;;;;;;;6.17;3.70;;;12.70;76.00;;;;;;5090721;28;20464;-73
2023/09/23 01:14:22;;;;;;;4.97;3.80;;;12.60;78.10;;;;;;5090478;28;20384;-74
2023/09/23 01:16:49;;;;;;;5.10;3.80;;;12.50;81.10;;;;;;5090815;28;20432;-74
2023/09/23 01:19:15;;;;;;;5.57;4.10;;;12.50;81.10;;;;;;5090682;28;20397;-74
2023/09/23 01:21:41;;;;;;;5.45;4.25;;;12.40;82.80;;;;;;5090629;28;20413;-74
2023/09/23 01:24:06;;;;;;;6.65;3.70;;;12.30;84.40;;;;;;5090704;28;20421;-74
2023/09/23 01:26:34;;;;;;;9.05;4.57;;;12.20;86.60;;;;;;5090564;28;20424;-74
2023/09/23 01:29:00;;;;;;;7.22;5.50;;;12.30;87.70;;;;;;5090593;28;20901;-74
2023/09/23 01:31:29;;;;;;;6.70;5.03;;;12.20;88.20;;;;;;5090569;28;20386;-74
2023/09/23 01:33:58;;;;;;;6.53;5.00;;;12.10;90.10;;;;;;5090500;28;20441;-73
2023/09/23 01:36:23;;;;;;;7.65;5.82;;;11.90;92.50;;;;;;5089117;28;20398;-73
2023/09/23 01:38:49;;;;;;;6.15;5.07;;;11.90;95.00;;;;;;5090385;28;20725;-74
2023/09/23 01:41:16;;;;;;;6.85;5.43;;;11.90;97.30;;;;;;5090345;28;20377;-74
2023/09/23 01:43:41;;;;;;;6.60;5.28;;;11.90;97.60;;;;;;5091032;28;20386;-74
2023/09/23 01:46:07;;;;;;;7.70;5.57;;;11.90;97.50;;;;;;5090770;28;20563;-73
2023/09/23 01:48:33;;;;;;;9.18;6.35;;;11.80;99.60;;;;;;5091400;28;20454;-73
2023/09/23 01:50:59;;;;;;;7.20;6.00;;;11.70;99.90;;;;;;5091891;28;20382;-73
2023/09/23 01:53:26;;;;;;;10.83;6.23;;;11.80;99.90;;;;;;5093160;28;20396;-73
2023/09/23 01:55:52;;;;;;;11.70;7.15;;;11.70;99.90;;;;;;5093730;28;20394;-73
2023/09/23 01:58:18;;;;;;;6.53;5.82;;;11.90;99.90;;;;;;5094417;28;20414;-73
2023/09/23 02:00:44;;;;;;;10.23;6.10;;;11.90;99.90;;;;;;5092720;28;20472;-75
2023/09/23 02:03:10;;;;;;;6.38;5.78;;;11.90;99.90;;;;;;5095326;28;20949;-73
2023/09/23 02:05:36;;;;;;;9.18;6.00;;;11.90;99.90;;;;;;5095506;28;20406;-73
2023/09/23 02:08:01;;;;;;;8.82;5.95;;;11.90;99.30;;;;;;5097406;28;20389;-73
2023/09/23 02:10:28;;;;;;;9.43;6.13;;;11.80;99.90;;;;;;5096694;28;20382;-73
2023/09/23 02:12:54;;;;;;;9.38;5.63;;;11.80;99.90;;;;;;5094739;28;20421;-72
2023/09/23 02:15:20;;;;;;;7.30;6.20;;;11.80;99.90;;;;;;5094790;28;20890;-74
2023/09/23 02:17:47;;;;;;;7.68;6.00;;;11.90;99.90;;;;;;5095775;28;20439;-73
2023/09/23 02:20:22;;;;;;;8.07;5.97;;;11.90;99.90;;;;;;5095936;28;20382;-74
2023/09/23 02:22:50;;;;;;;9.70;6.10;;;11.90;99.90;;;;;;5097692;28;20388;-73
2023/09/23 02:25:16;;;;;;;11.45;6.57;;;11.90;99.90;;;;;;5097455;28;20871;-74
2023/09/23 02:27:46;;;;;;;8.85;5.82;;;12.00;99.90;;;;;;5097793;28;20749;-73
2023/09/23 02:30:13;;;;;;;11.30;6.10;;;12.00;99.90;;;;;;5097613;28;20394;-73
2023/09/23 02:32:44;;;;;;;8.70;5.90;;;11.90;99.90;;;;;;5097819;28;20397;-74
2023/09/23 02:35:11;;;;;;;11.85;6.00;;;11.90;99.90;;;;;;5098168;28;20433;-74
2023/09/23 02:37:41;;;;;;;9.63;6.03;;;11.70;99.90;;;;;;5097548;28;20385;-74
2023/09/23 02:40:12;;;;;;;9.35;5.47;;;11.70;99.90;;;;;;5096131;28;20378;-74
2023/09/23 02:42:44;;;;;;;7.45;6.05;;;11.70;99.90;;;;;;5093334;28;20738;-73
2023/09/23 02:45:12;;;;;;;10.00;4.93;;;11.80;99.90;;;;;;5093550;28;20383;-74
2023/09/23 02:47:38;;;;;;;9.35;5.43;;;11.80;99.90;;;;;;5093305;28;20378;-73
2023/09/23 02:50:13;;;;;;;6.30;4.90;;;11.90;99.90;;;;;;5093252;28;20429;-72
2023/09/23 02:52:44;;;;;;;6.68;4.55;;;11.80;99.90;;;;;;5093623;28;20382;-72
2023/09/23 02:55:19;;;;;;;9.52;5.53;;;11.70;99.90;;;;;;5093212;28;20402;-73
2023/09/23 02:57:50;;;;;;;12.90;5.70;;;11.60;99.90;;;;;;5092999;28;20469;-73
2023/09/23 03:00:17;;;;;;;10.05;4.97;;;11.60;99.90;;;;;;5093021;28;20445;-73
2023/09/23 03:03:08;;;;;;;10.48;5.05;;;11.60;99.90;;;;;;5092648;28;20386;-74
2023/09/23 03:05:38;;;;;;;9.32;6.20;;;11.50;99.90;;;;;;5093155;28;20385;-73
2023/09/23 03:08:07;;;;;;;11.87;6.50;;;11.50;99.90;;;;;;5092824;28;20382;-73
2023/09/23 03:10:44;;;;;;;12.70;7.10;;;11.40;99.90;;;;;;5092808;28;20935;-73
2023/09/23 03:13:11;;;;;;;9.07;6.22;;;11.50;99.90;;;;;;5092604;28;20377;-73
2023/09/23 03:15:41;;;;;;;13.07;7.30;;;11.50;99.90;;;;;;5089076;22;20524;-71
2023/09/23 03:18:07;;;;;;;9.13;7.37;;;11.50;99.90;;;;;;5052514;28;20901;-71
2023/09/23 03:20:36;;;;;;;11.27;7.22;;;11.50;99.90;;;;;;5052524;28;20377;-71
2023/09/23 03:23:03;;;;;;;13.02;6.53;;;11.60;99.90;;;;;;5051174;28;20393;-71
2023/09/23 03:25:30;;;;;;;14.60;6.78;;;11.60;99.90;;;;;;5061540;28;20390;-71
2023/09/23 03:27:56;;;;;;;12.73;6.60;;;11.50;99.90;;;;;;5072356;28;20815;-71
2023/09/23 03:30:23;;;;;;;10.90;7.03;;;11.50;99.90;;;;;;5072223;28;20383;-73
2023/09/23 03:32:49;;;;;;;12.70;7.30;;;11.50;99.90;;;;;;5071889;28;20786;-71
2023/09/23 03:35:20;;;;;;;9.25;6.50;;;11.40;99.90;;;;;;5071892;28;20400;-72
2023/09/23 03:37:47;;;;;;;9.95;7.32;;;11.40;99.90;;;;;;5072144;28;20376;-72
2023/09/23 03:40:15;;;;;;;14.25;6.80;;;11.40;99.90;;;;;;5072132;28;20383;-71
2023/09/23 03:42:41;;;;;;;10.67;6.57;;;11.40;99.90;;;;;;5071957;28;20495;-72
2023/09/23 03:45:10;;;;;;;10.43;7.00;;;11.30;99.90;;;;;;5071723;28;20384;-71
2023/09/23 03:47:37;;;;;;;10.70;6.90;;;11.30;99.90;;;;;;5072623;28;20414;-71
2023/09/23 03:50:03;;;;;;;9.55;6.80;;;11.30;99.90;;;;;;5056788;28;20395;-71
2023/09/23 03:52:29;;;;;;;10.82;6.65;;;11.20;99.90;;;;;;5071599;28;20398;-71
2023/09/23 03:54:55;;;;;;;14.27;6.80;;;11.30;99.90;;;;;;5071679;28;21021;-71
2023/09/23 03:57:20;;;;;;;13.35;6.90;;;11.20;99.90;;;;;;5071537;28;20396;-71
2023/09/23 03:59:46;;;;;;;11.10;6.78;;;11.20;99.90;;;;;;5071674;28;20372;-72
2023/09/23 04:02:12;;;;;;;12.20;6.45;;;11.20;99.90;;;;;;5071340;28;20844;-71
2023/09/23 04:04:37;;;;;;;9.80;6.25;;;11.10;99.90;;;;;;5071696;28;20404;-72
2023/09/23 04:07:05;;;;;;;9.80;5.80;;;11.10;99.90;;;;;;5071636;28;20375;-71
2023/09/23 04:09:32;;;;;;;8.10;5.47;;;11.10;99.90;;;;;;5071420;28;20454;-71
2023/09/23 04:11:57;;;;;;;12.45;5.70;;;11.00;99.90;;;;;;5071270;28;20462;-71
2023/09/23 04:14:26;;;;;;;8.52;5.10;;;11.00;99.90;;;;;;5071074;28;20388;-71
2023/09/23 04:16:52;;;;;;;9.43;6.50;;;11.00;99.90;;;;;;5071232;28;20387;-71
2023/09/23 04:19:18;;;;;;;8.07;5.47;;;11.00;99.90;;;;;;5071224;28;20384;-72
2023/09/23 04:21:44;;;;;;;9.50;5.43;;;11.00;99.90;;;;;;5071199;28;20970;-71
2023/09/23 04:24:09;;;;;;;10.20;5.30;;;11.00;99.90;;;;;;5070847;28;20407;-71
2023/09/23 04:26:35;;;;;;;8.18;4.70;;;11.00;99.90;;;;;;5071046;28;20947;-71
2023/09/23 04:29:00;;;;;;;8.57;4.80;;;11.00;99.90;;;;;;5071310;28;20682;-71
2023/09/23 04:31:26;;;;;;;6.90;4.20;;;11.10;99.90;;;;;;5070880;28;20736;-72
2023/09/23 04:33:51;;;;;;;13.37;3.97;;;11.00;99.90;;;;;;5070932;28;20775;-71
2023/09/23 04:36:17;;;;;;;7.67;3.93;;;11.00;99.90;;;;;;5070916;28;20453;-71
2023/09/23 04:38:46;;;;;;;9.23;4.20;;;10.90;99.90;;;;;;5070967;28;20482;-71
2023/09/23 04:41:11;;;;;;;4.88;3.72;;;11.00;99.90;;;;;;5070860;28;20384;-71
2023/09/23 04:43:39;;;;;;;8.77;4.00;;;11.10;99.90;;;;;;5071371;28;20433;-71
2023/09/23 04:46:06;;;;;;;5.28;3.20;;;11.20;99.90;;;;;;5070976;28;20394;-71
2023/09/23 04:48:31;;;;;;;7.30;3.70;;;11.20;99.90;;;;;;5071413;28;20388;-72
2023/09/23 04:50:57;;;;;;;6.50;3.20;;;11.20;99.90;;;;;;5070984;28;20808;-72
2023/09/23 04:53:23;;;;;;;6.50;3.55;;;11.40;99.90;;;;;;5071015;28;20391;-72
2023/09/23 04:55:48;;;;;;;5.90;3.20;;;11.50;99.90;;;;;;5071019;28;20403;-72
2023/09/23 04:58:14;;;;;;;5.55;3.10;;;11.50;99.90;;;;;;5070844;28;20872;-72
2023/09/23 05:00:40;;;;;;;7.82;3.50;;;11.60;99.90;;;;;;5072585;28;20375;-72
2023/09/23 05:03:08;;;;;;;8.73;2.90;;;11.60;99.90;;;;;;5072726;28;20756;-72
2023/09/23 05:05:34;;;;;;;7.75;3.03;;;11.60;99.90;;;;;;5070393;28;20380;-72
2023/09/23 05:08:01;;;;;;;5.93;2.75;;;11.60;99.90;;;;;;5070427;28;20396;-72
2023/09/23 05:10:28;;;;;;;4.63;3.10;;;11.60;99.90;;;;;;5070380;28;20392;-73
2023/09/23 05:12:54;;;;;;;5.85;2.80;;;11.60;99.90;;;;;;5052183;28;20426;-72
2023/09/23 05:15:19;;;;;;;5.07;2.72;;;11.40;99.90;;;;;;5070110;28;20431;-72
2023/09/23 05:17:45;;;;;;;5.93;3.00;;;11.50;99.90;;;;;;5070574;28;20430;-73
2023/09/23 05:20:21;;;;;;;7.80;2.90;;;11.40;99.90;;;;;;5070383;28;20510;-74
2023/09/23 05:22:48;;;;;;;12.38;3.20;;;11.40;99.90;;;;;;5070203;28;20371;-72
2023/09/23 05:25:14;;;;;;;6.75;3.30;;;11.40;99.90;;;;;;5070267;28;20467;-72
2023/09/23 05:27:40;;;;;;;5.40;2.95;;;11.50;99.90;;;;;;5070175;28;20491;-73
2023/09/23 05:30:07;;;;;;;6.07;3.00;;;11.50;99.90;;;;;;5070382;28;20822;-72
2023/09/23 05:32:34;;;;;;;8.45;3.10;;;11.60;99.90;;;;;;5069995;28;20782;-72
2023/09/23 05:35:00;;;;;;;9.85;3.30;;;11.60;99.90;;;;;;5068826;28;20483;-72
2023/09/23 05:37:26;;;;;;;7.05;2.60;;;11.50;99.90;;;;;;5072320;28;20466;-72
2023/09/23 05:39:53;;;;;;;7.20;3.10;;;11.60;99.90;;;;;;5074152;28;20418;-72
2023/09/23 05:42:23;;;;;;;7.97;3.17;;;11.70;99.90;;;;;;5073859;28;20470;-72
2023/09/23 05:44:49;;;;;;;5.80;2.97;;;11.70;99.90;;;;;;5074102;28;20415;-72
2023/09/23 05:47:14;;;;;;;11.25;3.90;;;11.70;99.90;;;;;;5074195;28;20415;-71
2023/09/23 05:49:40;;;;;;;11.13;3.58;;;11.70;99.70;;;;;;5078662;28;20467;-71
2023/09/23 05:52:06;;;;;;;4.75;2.78;;;11.70;98.90;;;;;;5079984;28;20410;-72
2023/09/23 05:54:32;;;;;;;6.83;3.40;;;11.70;98.60;;;;;;5081557;28;20383;-72
2023/09/23 05:56:57;;;;;;;9.30;3.20;;;11.70;98.90;;;;;;5081389;28;20402;-72
2023/09/23 05:59:23;;;;;;;6.40;3.20;;;11.70;99.90;;;;;;5084367;28;20391;-72
2023/09/23 06:01:48;;;;;;;5.27;2.60;;;11.70;99.50;;;;;;5083675;28;20721;-72
2023/09/23 06:04:14;;;;;;;9.52;3.13;;;11.70;99.60;;;;;;5083734;28;20390;-72
2023/09/23 06:06:39;;;;;;;7.22;3.30;;;11.90;99.90;;;;;;5083260;28;20466;-73
2023/09/23 06:09:06;;;;;;;13.67;3.40;;;12.10;97.10;;;;;;5083422;28;20384;-72
2023/09/23 06:11:32;;;;;;;8.73;3.20;;;12.30;91.90;;;;;;5084532;28;20376;-72
2023/09/23 06:13:58;;;;;;;5.80;2.90;;;12.40;91.60;;;;;;5083948;28;20398;-72
2023/09/23 06:16:24;;;;;;;8.82;3.30;;;12.40;90.60;;;;;;5084009;28;20458;-71
2023/09/23 06:18:49;;;;;;;8.52;3.13;;;12.60;85.80;;;;;;5084598;28;20440;-72
2023/09/23 06:21:15;;;;;;;7.80;3.40;;;12.70;85.40;;;;;;5083763;28;20376;-72
2023/09/23 06:23:40;;;;;;;10.57;3.07;;;12.80;82.80;;;;;;5082519;28;20391;-72
2023/09/23 06:26:06;;;;;;;10.20;3.10;;;12.70;80.50;;;;;;5073760;28;20387;-71
2023/09/23 06:28:33;;;;;;;11.20;3.22;;;12.80;79.70;;;;;;5073726;28;20387;-72
2023/09/23 06:30:58;;;;;;;8.02;2.90;;;12.80;80.20;;;;;;5073058;28;20455;-71
2023/09/23 06:33:24;;;;;;;11.40;2.30;;;12.80;80.30;;;;;;5072863;28;20403;-72
2023/09/23 06:35:50;;;;;;;7.40;3.30;;;12.80;77.80;;;;;;5072917;28;20408;-72
2023/09/23 06:38:16;;;;;;;9.90;3.17;;;12.70;78.30;;;;;;5066342;28;20481;-72
2023/09/23 06:40:42;;;;;;;9.02;3.00;;;12.70;79.00;;;;;;5064777;28;20739;-72
2023/09/23 06:43:07;;;;;;;10.43;2.97;;;12.70;78.90;;;;;;5073006;28;20471;-73
2023/09/23 06:45:33;;;;;;;8.05;2.60;;;12.80;76.00;;;;;;5068446;28;20399;-73
2023/09/23 06:47:58;;;;;;;7.85;2.88;;;12.90;75.10;;;;;;5056856;28;20497;-73
2023/09/23 06:50:24;;;;;;;11.60;3.13;;;13.10;72.70;;;;;;5050821;28;20425;-73
2023/09/23 06:52:49;;;;;;;6.00;3.00;;;13.10;72.60;;;;;;5050564;28;20397;-71
2023/09/23 06:55:15;;;;;;;6.53;3.00;;;13.10;72.70;;;;;;5056541;28;20407;-72
2023/09/23 06:57:41;;;;;;;5.75;2.40;;;13.10;71.60;;;;;;5059683;28;20389;-73
2023/09/23 07:00:07;;;;;;;4.22;2.45;;;13.10;71.70;;;;;;5050016;28;20389;-71
2023/09/23 07:02:33;;;;;;;10.13;2.73;;;13.30;69.70;;;;;;5048878;28;20416;-73
2023/09/23 07:04:59;;;;;;;8.05;2.70;;;13.40;67.30;;;;;;5050533;28;20397;-73
2023/09/23 07:07:25;;;;;;;7.07;2.92;;;13.40;66.50;;;;;;5049967;28;21015;-73
2023/09/23 07:09:51;;;;;;;13.13;3.20;;;13.40;67.00;;;;;;5049901;28;20390;-72
2023/09/23 07:12:16;;;;;;;6.70;3.00;;;13.40;66.30;;;;;;5049372;28;20399;-73
2023/09/23 07:14:42;;;;;;;8.88;2.95;;;13.50;66.00;;;;;;5057113;28;20490;-72
2023/09/23 07:17:08;;;;;;;15.07;2.67;;;13.50;66.20;;;;;;5069684;28;20407;-73
2023/09/23 07:19:34;;;;;;;11.00;2.97;;;13.60;64.50;;;;;;5069559;28;20380;-72
2023/09/23 07:22:00;;;;;;;9.10;2.47;;;13.80;63.60;;;;;;5068614;28;20849;-71
2023/09/23 07:24:26;;;;;;;5.95;2.30;;;14.20;58.30;;;;;;5069458;28;20486;-71
2023/09/23 07:26:58;;;;;;;9.97;2.90;;;14.40;57.40;;;;;;5067067;28;20532;-72
2023/09/23 07:29:24;;;;;;;8.77;2.80;;;14.40;57.70;;;;;;5069112;28;20394;-73
2023/09/23 07:31:50;;;;;;;5.20;2.20;;;14.60;55.90;;;;;;5049912;28;20494;-73
2023/09/23 07:34:16;;;;;;;7.82;2.58;;;14.90;53.00;;;;;;5069588;28;20468;-72
2023/09/23 07:36:42;;;;;;;5.33;2.50;;;14.90;52.60;;;;;;5068949;28;20951;-72
2023/09/23 07:39:10;;;;;;;4.03;2.30;;;15.00;51.70;;;;;;5069077;28;20467;-72
2023/09/23 07:41:36;;;;;;;7.43;2.10;;;14.90;53.70;;;;;;5065109;28;20742;-71
2023/09/23 07:44:02;;;;;;;8.35;2.72;;;14.80;53.20;;;;;;5060526;28;20487;-71
2023/09/23 07:46:28;;;;;;;4.87;2.20;;;15.00;52.80;;;;;;5060941;28;20482;-71
2023/09/23 07:48:53;;;;;;;8.80;2.67;;;15.20;51.80;;;;;;5047267;28;20402;-72
2023/09/23 07:51:19;;;;;;;6.32;2.42;;;15.50;49.70;;;;;;5064155;28;20388;-74
2023/09/23 07:53:44;;;;;;;4.65;2.03;;;15.70;48.30;;;;;;5068001;28;20403;-73
2023/09/23 07:56:10;;;;;;;5.30;2.10;;;15.80;47.40;;;;;;5056914;28;20489;-73
2023/09/23 07:58:35;;;;;;;7.63;2.92;;;15.90;46.90;;;;;;5063154;28;20433;-73
2023/09/23 08:01:01;;;;;;;7.25;2.40;;;15.80;46.10;;;;;;5052876;28;20385;-73
2023/09/23 08:03:28;;;;;;;7.90;2.70;;;15.80;46.70;;;;;;5064145;28;20904;-74
2023/09/23 08:05:54;;;;;;;8.43;2.60;;;15.80;46.00;;;;;;5065281;28;20409;-73
2023/09/23 08:08:20;;;;;;;7.90;2.50;;;15.90;45.70;;;;;;5053775;28;20403;-73
2023/09/23 08:10:45;;;;;;;6.22;2.33;;;16.20;44.20;;;;;;5058097;28;20401;-72
2023/09/23 08:13:11;;;;;;;7.60;2.60;;;16.20;43.80;;;;;;5048589;28;20834;-72
2023/09/23 08:15:37;;;;;;;10.20;2.50;;;16.00;44.10;;;;;;5049374;28;20986;-73
2023/09/23 08:18:02;;;;;;;5.63;2.40;;;16.00;44.60;;;;;;5062941;28;20403;-74
2023/09/23 08:20:29;;;;;;;5.97;2.10;;;16.00;44.20;;;;;;5059576;28;20399;-73
2023/09/23 08:22:55;;;;;;;7.70;2.70;;;15.80;44.50;;;;;;5072495;28;20442;-75
2023/09/23 08:25:20;;;;;;;6.50;2.87;;;15.60;46.10;;;;;;5074882;28;20384;-75
2023/09/23 08:27:46;;;;;;;9.10;2.80;;;15.50;47.80;;;;;;5077865;28;20376;-75
2023/09/23 08:30:13;;;;;;;7.60;2.67;;;15.50;47.70;;;;;;5074797;28;20400;-75
2023/09/23 08:32:39;;;;;;;3.95;2.50;;;15.50;47.10;;;;;;5072738;28;20427;-72
2023/09/23 08:35:07;;;;;;;7.68;2.65;;;15.60;46.50;;;;;;5070090;28;20407;-74
2023/09/23 08:37:33;;;;;;;7.43;3.05;;;15.70;46.60;;;;;;5062365;28;20392;-73
2023/09/23 08:39:59;;;;;;;6.93;3.30;;;15.80;45.30;;;;;;5051617;28;20428;-73
2023/09/23 08:42:25;;;;;;;7.25;2.90;;;15.90;44.40;;;;;;5053448;28;20437;-73
2023/09/23 08:44:51;;;;;;;6.43;2.70;;;16.20;44.80;;;;;;5070522;28;20463;-73
2023/09/23 08:47:20;;;;;;;5.25;2.70;;;16.60;42.80;;;;;;5071926;28;20416;-73
2023/09/23 08:49:49;;;;;;;5.38;2.70;;;16.90;39.80;;;;;;5071910;28;20459;-72
2023/09/23 08:52:18;;;;;;;9.05;3.28;;;17.10;39.30;;;;;;5070690;28;20537;-74
2023/09/23 08:54:49;;;;;;;7.22;2.50;;;17.20;38.70;;;;;;5070472;28;20375;-73
2023/09/23 08:57:16;;;;;;;5.68;2.38;;;17.20;38.40;;;;;;5070424;28;20388;-72
2023/09/23 08:59:42;;;;;;;5.00;3.15;;;17.40;38.10;;;;;;5070565;28;20548;-73
2023/09/23 09:02:07;;;;;;;6.25;2.80;;;17.40;37.40;;;;;;5070657;28;20916;-73
2023/09/23 09:04:34;;;;;;;8.00;2.80;;;17.40;36.90;;;;;;5070740;28;20756;-72
2023/09/23 09:06:59;;;;;;;4.38;2.70;;;17.40;37.20;;;;;;5070762;28;20391;-73
2023/09/23 09:09:25;;;;;;;6.13;2.70;;;17.40;36.80;;;;;;5071092;28;20388;-73
2023/09/23 09:11:53;;;;;;;10.57;3.10;;;17.40;37.30;;;;;;5070660;28;20380;-72
2023/09/23 09:14:19;;;;;;;8.48;3.42;;;17.60;36.50;;;;;;5070699;28;20391;-73
2023/09/23 09:16:45;;;;;;;7.18;2.80;;;17.50;35.80;;;;;;5069087;22;20897;-70
2023/09/23 09:19:11;;;;;;;7.22;3.05;;;17.40;36.10;;;;;;5052395;28;20877;-70
2023/09/23 09:21:36;;;;;;;6.50;3.03;;;17.20;36.50;;;;;;5060731;28;20411;-71
2023/09/23 09:24:04;;;;;;;5.03;2.95;;;17.20;37.50;;;;;;5057497;28;20377;-71
2023/09/23 09:26:30;;;;;;;7.30;2.50;;;17.20;37.50;;;;;;5051765;28;20483;-71
2023/09/23 09:28:56;;;;;;;8.98;2.50;;;17.20;36.80;;;;;;5051534;28;20442;-69
2023/09/23 09:31:25;;;;;;;7.13;2.67;;;17.30;37.30;;;;;;5051417;28;20473;-70
2023/09/23 09:33:53;;;;;;;6.00;2.60;;;17.40;36.30;;;;;;5051337;28;20381;-70
2023/09/23 09:36:23;;;;;;;9.52;3.00;;;17.60;36.30;;;;;;5051600;28;20404;-71
2023/09/23 09:38:53;;;;;;;8.50;3.00;;;17.60;35.60;;;;;;5051811;28;20411;-71
2023/09/23 09:41:29;;;;;;;10.70;2.65;;;17.70;35.40;;;;;;5050880;28;20412;-70
2023/09/23 09:43:56;;;;;;;6.72;2.70;;;17.70;35.70;;;;;;5050908;28;20391;-71
2023/09/23 09:46:23;;;;;;;7.50;2.90;;;17.50;35.20;;;;;;5051061;28;20399;-69
2023/09/23 09:48:50;;;;;;;6.85;2.65;;;17.50;35.40;;;;;;5050040;28;20435;-70
2023/09/23 09:51:18;;;;;;;8.67;2.90;;;17.40;35.40;;;;;;5050476;28;20389;-71
2023/09/23 09:53:45;;;;;;;6.88;2.47;;;17.30;35.20;;;;;;5050867;28;20746;-71
2023/09/23 09:56:11;;;;;;;8.70;2.80;;;17.30;34.90;;;;;;5050383;28;20849;-71
2023/09/23 09:58:38;;;;;;;5.90;2.60;;;17.30;35.10;;;;;;5047323;28;20473;-72
2023/09/23 10:01:04;;;;;;;6.32;2.40;;;17.40;35.20;;;;;;5041162;28;20402;-71
2023/09/23 10:03:30;;;;;;;6.47;2.43;;;17.50;34.30;;;;;;5035223;28;20397;-71
2023/09/23 10:06:00;;;;;;;7.80;2.30;;;17.60;33.20;;;;;;5048566;28;20397;-71
2023/09/23 10:08:35;;;;;;;6.13;2.20;;;17.70;32.70;;;;;;5051010;28;20431;-71
2023/09/23 10:11:04;;;;;;;5.70;1.80;;;17.90;32.00;;;;;;5051999;28;20394;-71
2023/09/23 10:13:31;;;;;;;15.30;3.20;;;18.10;30.60;;;;;;5052359;28;20396;-72
2023/09/23 10:16:19;;;;;;;7.50;2.60;;;18.30;31.30;;;;;;5057057;28;20429;-71
2023/09/23 10:18:56;;;;;;;5.43;2.30;;;18.60;29.50;;;;;;5061597;28;20388;-71
2023/09/23 10:21:29;;;;;;;7.47;2.50;;;18.60;29.20;;;;;;5058648;28;20378;-71
2023/09/23 10:23:56;;;;;;;6.30;2.55;;;18.40;29.50;;;;;;5059199;28;20378;-70
2023/09/23 10:26:25;;;;;;;7.63;2.90;;;18.40;30.40;;;;;;5059672;28;20400;-73
2023/09/23 10:29:04;;;;;;;6.50;2.15;;;18.40;30.90;;;;;;5069057;28;20412;-71
2023/09/23 10:31:32;;;;;;;8.20;2.60;;;18.50;29.70;;;;;;5066280;28;20420;-72
2023/09/23 10:34:04;;;;;;;4.85;2.20;;;18.20;30.30;;;;;;5057465;28;20749;-72
2023/09/23 10:36:29;;;;;;;4.45;2.22;;;18.00;30.20;;;;;;5055421;28;20438;-71
2023/09/23 10:38:56;;;;;;;5.63;2.30;;;18.00;30.10;;;;;;5055902;28;20738;-71
2023/09/23 10:41:30;;;;;;;4.40;2.00;;;18.20;29.50;;;;;;5055239;28;20381;-71
2023/09/23 10:43:56;;;;;;;6.10;2.55;;;18.50;29.50;;;;;;5053624;28;20503;-71
2023/09/23 10:46:21;;;;;;;6.35;2.50;;;18.80;28.80;;;;;;5054736;28;20397;-72
2023/09/23 10:48:47;;;;;;;8.90;2.43;;;18.80;28.30;;;;;;5054703;28;20393;-71
2023/09/23 10:51:13;;;;;;;6.90;2.00;;;18.60;28.40;;;;;;5054252;28;20451;-71
2023/09/23 10:53:39;;;;;;;4.83;2.17;;;18.50;27.80;;;;;;5056536;28;20385;-70
2023/09/23 10:56:10;;;;;;;5.43;2.07;;;18.60;27.70;;;;;;5053546;28;20761;-71
2023/09/23 10:58:36;;;;;;;4.90;1.90;;;18.70;28.40;;;;;;5055114;28;20446;-70
2023/09/23 11:01:04;;;;;;;2.55;1.63;;;18.70;28.00;;;;;;5055599;28;21062;-72
2023/09/23 11:03:30;;;;;;;4.82;1.70;;;18.70;27.10;;;;;;5054131;28;20389;-70
2023/09/23 11:05:56;;;;;;;5.18;2.00;;;18.80;26.90;;;;;;5053095;28;20394;-71
2023/09/23 11:08:22;;;;;;;4.60;1.42;;;18.90;27.70;;;;;;5054206;28;20431;-71
2023/09/23 11:10:49;;;;;;;6.70;1.80;;;18.90;25.70;;;;;;5054161;28;20528;-70
2023/09/23 11:13:15;;;;;;;4.30;1.60;;;18.90;26.20;;;;;;5054732;28;20393;-74
2023/09/23 11:15:45;;;;;;;5.20;1.47;;;19.00;25.30;;;;;;5052936;28;20492;-70
2023/09/23 11:18:14;;;;;;;4.10;1.50;;;18.90;25.00;;;;;;5055334;28;20393;-72
2023/09/23 11:20:43;;;;;;;3.80;1.60;;;19.00;25.50;;;;;;5054930;28;20382;-73
2023/09/23 11:23:10;;;;;;;4.15;1.70;;;19.10;25.90;;;;;;5053842;28;20870;-72
2023/09/23 11:25:42;;;;;;;5.70;1.50;;;19.20;25.60;;;;;;5053069;28;20389;-70
2023/09/23 11:28:28;;;;;;;4.65;1.65;;;19.20;24.80;;;;;;5052774;28;20405;-71
2023/09/23 11:30:55;;;;;;;5.82;1.73;;;19.10;25.40;;;;;;5055464;28;20407;-71
2023/09/23 11:33:21;;;;;;;5.05;1.60;;;19.20;25.80;;;;;;5055714;28;20409;-70
2023/09/23 11:35:47;;;;;;;4.60;1.70;;;19.20;25.00;;;;;;5055029;28;20908;-70
2023/09/23 11:38:13;;;;;;;6.40;1.70;;;18.90;25.50;;;;;;5055870;28;20385;-69
2023/09/23 11:40:39;;;;;;;3.88;1.40;;;18.80;25.90;;;;;;5055605;28;20392;-71
2023/09/23 11:43:05;;;;;;;3.45;1.42;;;18.80;26.20;;;;;;5054548;28;20377;-70
2023/09/23 11:45:32;;;;;;;4.65;1.60;;;18.80;25.80;;;;;;5053905;28;20434;-71
2023/09/23 11:47:59;;;;;;;5.60;2.05;;;18.80;26.60;;;;;;5052982;28;20386;-71
2023/09/23 11:50:28;;;;;;;7.25;1.80;;;18.70;26.50;;;;;;5052785;28;20866;-71
2023/09/23 11:52:53;;;;;;;4.35;1.90;;;18.90;25.70;;;;;;5052508;28;20852;-71
2023/09/23 11:55:22;;;;;;;3.50;1.80;;;18.90;25.90;;;;;;5054531;28;20432;-71
2023/09/23 11:57:48;;;;;;;6.10;1.80;;;19.00;25.50;;;;;;5054278;28;20381;-70
2023/09/23 12:00:15;;;;;;;7.73;1.80;;;19.00;25.30;;;;;;5054832;28;20421;-71
2023/09/23 12:02:41;;;;;;;3.00;1.83;;;18.90;25.30;;;;;;5054700;28;20743;-70
2023/09/23 12:05:08;;;;;;;4.18;1.67;;;18.80;25.70;;;;;;5053305;28;20394;-70
2023/09/23 12:07:34;;;;;;;3.80;1.30;;;19.10;25.40;;;;;;5053433;28;20381;-72
2023/09/23 12:10:04;;;;;;;4.13;2.00;;;19.20;25.40;;;;;;5053248;28;20842;-70
2023/09/23 12:12:30;;;;;;;7.55;2.20;;;19.20;25.50;;;;;;5052551;28;20433;-70
2023/09/23 12:14:56;;;;;;;5.90;1.87;;;19.30;25.70;;;;;;5052493;28;20389;-70
2023/09/23 12:17:22;;;;;;;8.53;1.90;;;19.30;25.50;;;;;;5053836;28;20416;-69
2023/09/23 12:19:47;;;;;;;5.30;1.73;;;19.30;25.00;;;;;;5053685;28;20382;-70
2023/09/23 12:22:15;;;;;;;5.70;1.70;;;19.30;24.70;;;;;;5052380;28;20382;-70
2023/09/23 12:24:44;;;;;;;11.10;2.37;;;19.20;25.20;;;;;;5053412;28;20386;-71
2023/09/23 12:27:10;;;;;;;4.00;1.80;;;19.20;25.80;;;;;;5053233;28;20435;-70
2023/09/23 12:29:36;;;;;;;3.60;1.60;;;19.30;26.40;;;;;;5053045;28;20416;-69
2023/09/23 12:32:02;;;;;;;5.27;2.10;;;19.40;25.80;;;;;;5052041;28;20393;-70
2023/09/23 12:34:29;;;;;;;6.47;2.10;;;19.50;25.20;;;;;;5052756;28;20390;-71
2023/09/23 12:36:54;;;;;;;8.20;2.40;;;19.50;24.80;;;;;;5052132;28;20424;-71
2023/09/23 12:39:22;;;;;;;5.20;2.10;;;19.20;25.40;;;;;;5052022;28;20389;-68
2023/09/23 12:41:48;;;;;;;5.63;2.30;;;19.10;25.80;;;;;;5051594;28;20857;-71
2023/09/23 12:44:13;;;;;;;2.92;2.00;;;19.10;26.00;;;;;;5052685;28;20382;-70